sensor_id;sensor_type;location;lat;lon;timestamp;P1;durP1;ratioP1;P2;durP2;ratioP2
57331;SDS011;43164;50.908;18.092;2023-08-21T00:01:17;12.80;;;10.70;;
57331;SDS011;43164;50.908;18.092;2023-08-21T00:03:45;15.40;;;11.90;;
57331;SDS011;43164;50.908;18.092;2023-08-21T00:06:12;15.40;;;11.20;;
57331;SDS011;43164;50.908;18.092;2023-08-21T00:08:40;12.90;;;10.00;;
57331;SDS011;43164;50.908;18.092;2023-08-21T00:11:08;13.10;;;10.50;;
57331;SDS011;43164;50.908;18.092;2023-08-21T00:13:36;14.90;;;11.30;;
57331;SDS011;43164;50.908;18.092;2023-08-21T00:16:04;13.60;;;10.50;;
57331;SDS011;43164;50.908;18.092;2023-08-21T00:18:32;14.70;;;10.60;;
57331;SDS011;43164;50.908;18.092;2023-08-21T00:20:59;14.60;;;11.60;;
57331;SDS011;43164;50.908;18.092;2023-08-21T00:23:28;15.30;;;12.00;;
57331;SDS011;43164;50.908;18.092;2023-08-21T00:25:56;15.70;;;12.00;;
57331;SDS011;43164;50.908;18.092;2023-08-21T00:28:24;16.70;;;12.50;;
57331;SDS011;43164;50.908;18.092;2023-08-21T00:30:59;14.90;;;11.20;;
57331;SDS011;43164;50.908;18.092;2023-08-21T00:33:33;14.40;;;11.30;;
57331;SDS011;43164;50.908;18.092;2023-08-21T00:36:00;14.80;;;11.00;;
57331;SDS011;43164;50.908;18.092;2023-08-21T00:38:28;14.50;;;10.90;;
57331;SDS011;43164;50.908;18.092;2023-08-21T00:40:56;14.50;;;11.10;;
57331;SDS011;43164;50.908;18.092;2023-08-21T00:43:24;14.40;;;10.50;;
57331;SDS011;43164;50.908;18.092;2023-08-21T00:45:52;16.40;;;11.10;;
57331;SDS011;43164;50.908;18.092;2023-08-21T00:48:19;15.10;;;11.90;;
57331;SDS011;43164;50.908;18.092;2023-08-21T00:50:48;15.40;;;11.30;;
57331;SDS011;43164;50.908;18.092;2023-08-21T00:53:16;13.20;;;11.20;;
57331;SDS011;43164;50.908;18.092;2023-08-21T00:55:45;17.70;;;11.90;;
57331;SDS011;43164;50.908;18.092;2023-08-21T00:58:13;14.80;;;12.20;;
57331;SDS011;43164;50.908;18.092;2023-08-21T01:00:43;15.60;;;11.90;;
57331;SDS011;43164;50.908;18.092;2023-08-21T01:03:15;13.60;;;11.30;;
57331;SDS011;43164;50.908;18.092;2023-08-21T01:05:44;15.00;;;11.50;;
57331;SDS011;43164;50.908;18.092;2023-08-21T01:08:21;15.30;;;11.10;;
57331;SDS011;43164;50.908;18.092;2023-08-21T01:10:59;16.60;;;12.50;;
57331;SDS011;43164;50.908;18.092;2023-08-21T01:16:18;19.20;;;12.50;;
57331;SDS011;43164;50.908;18.092;2023-08-21T01:18:48;16.80;;;12.10;;
57331;SDS011;43164;50.908;18.092;2023-08-21T01:21:17;18.00;;;13.20;;
57331;SDS011;43164;50.908;18.092;2023-08-21T01:23:45;16.90;;;12.30;;
57331;SDS011;43164;50.908;18.092;2023-08-21T01:26:14;16.10;;;12.80;;
57331;SDS011;43164;50.908;18.092;2023-08-21T01:28:44;17.50;;;12.90;;
57331;SDS011;43164;50.908;18.092;2023-08-21T01:31:21;15.90;;;12.40;;
57331;SDS011;43164;50.908;18.092;2023-08-21T01:36:45;14.00;;;11.00;;
57331;SDS011;43164;50.908;18.092;2023-08-21T01:39:14;16.70;;;11.70;;
57331;SDS011;43164;50.908;18.092;2023-08-21T01:42:04;13.60;;;9.90;;
57331;SDS011;43164;50.908;18.092;2023-08-21T01:44:39;14.80;;;10.90;;
57331;SDS011;43164;50.908;18.092;2023-08-21T01:47:08;15.30;;;11.30;;
57331;SDS011;43164;50.908;18.092;2023-08-21T01:49:37;17.00;;;12.50;;
57331;SDS011;43164;50.908;18.092;2023-08-21T01:52:05;16.00;;;13.00;;
57331;SDS011;43164;50.908;18.092;2023-08-21T01:54:33;15.10;;;11.80;;
57331;SDS011;43164;50.908;18.092;2023-08-21T01:57:00;14.90;;;11.10;;
57331;SDS011;43164;50.908;18.092;2023-08-21T01:59:28;13.70;;;10.80;;
57331;SDS011;43164;50.908;18.092;2023-08-21T02:01:56;15.00;;;9.90;;
57331;SDS011;43164;50.908;18.092;2023-08-21T02:04:24;12.90;;;10.50;;
57331;SDS011;43164;50.908;18.092;2023-08-21T02:06:53;14.50;;;10.50;;
57331;SDS011;43164;50.908;18.092;2023-08-21T02:09:21;14.20;;;10.60;;
57331;SDS011;43164;50.908;18.092;2023-08-21T02:11:49;13.80;;;10.50;;
57331;SDS011;43164;50.908;18.092;2023-08-21T02:14:17;16.20;;;11.40;;
57331;SDS011;43164;50.908;18.092;2023-08-21T02:16:48;13.60;;;10.90;;
57331;SDS011;43164;50.908;18.092;2023-08-21T02:19:16;14.70;;;10.70;;
57331;SDS011;43164;50.908;18.092;2023-08-21T02:21:43;15.50;;;11.70;;
57331;SDS011;43164;50.908;18.092;2023-08-21T02:24:11;14.20;;;11.80;;
57331;SDS011;43164;50.908;18.092;2023-08-21T02:26:39;15.50;;;11.40;;
57331;SDS011;43164;50.908;18.092;2023-08-21T02:29:07;13.10;;;10.30;;
57331;SDS011;43164;50.908;18.092;2023-08-21T02:31:35;13.70;;;10.70;;
57331;SDS011;43164;50.908;18.092;2023-08-21T02:34:02;14.80;;;11.30;;
57331;SDS011;43164;50.908;18.092;2023-08-21T02:36:30;15.00;;;12.20;;
57331;SDS011;43164;50.908;18.092;2023-08-21T02:38:59;16.50;;;13.20;;
57331;SDS011;43164;50.908;18.092;2023-08-21T02:41:27;15.90;;;12.60;;
57331;SDS011;43164;50.908;18.092;2023-08-21T02:43:55;14.60;;;11.70;;
57331;SDS011;43164;50.908;18.092;2023-08-21T02:46:23;15.40;;;11.60;;
57331;SDS011;43164;50.908;18.092;2023-08-21T02:48:51;13.40;;;10.40;;
57331;SDS011;43164;50.908;18.092;2023-08-21T02:51:19;12.60;;;9.70;;
57331;SDS011;43164;50.908;18.092;2023-08-21T02:53:48;14.80;;;10.50;;
57331;SDS011;43164;50.908;18.092;2023-08-21T02:56:16;13.00;;;10.20;;
57331;SDS011;43164;50.908;18.092;2023-08-21T02:58:44;16.90;;;12.40;;
57331;SDS011;43164;50.908;18.092;2023-08-21T03:01:12;13.80;;;11.10;;
57331;SDS011;43164;50.908;18.092;2023-08-21T03:03:40;15.10;;;11.40;;
57331;SDS011;43164;50.908;18.092;2023-08-21T03:06:08;16.00;;;11.50;;
57331;SDS011;43164;50.908;18.092;2023-08-21T03:08:36;15.70;;;10.40;;
57331;SDS011;43164;50.908;18.092;2023-08-21T03:11:03;15.80;;;11.60;;
57331;SDS011;43164;50.908;18.092;2023-08-21T03:13:31;16.10;;;12.50;;
57331;SDS011;43164;50.908;18.092;2023-08-21T03:15:59;16.00;;;12.80;;
57331;SDS011;43164;50.908;18.092;2023-08-21T03:18:30;16.40;;;12.60;;
57331;SDS011;43164;50.908;18.092;2023-08-21T03:21:11;16.60;;;12.40;;
57331;SDS011;43164;50.908;18.092;2023-08-21T03:23:39;16.60;;;12.70;;
57331;SDS011;43164;50.908;18.092;2023-08-21T03:26:08;17.00;;;12.60;;
57331;SDS011;43164;50.908;18.092;2023-08-21T03:28:36;17.50;;;12.50;;
57331;SDS011;43164;50.908;18.092;2023-08-21T03:31:04;16.40;;;12.80;;
57331;SDS011;43164;50.908;18.092;2023-08-21T03:33:32;17.60;;;13.10;;
57331;SDS011;43164;50.908;18.092;2023-08-21T03:36:00;15.90;;;12.40;;
57331;SDS011;43164;50.908;18.092;2023-08-21T03:38:28;15.50;;;12.20;;
57331;SDS011;43164;50.908;18.092;2023-08-21T03:40:56;15.50;;;11.70;;
57331;SDS011;43164;50.908;18.092;2023-08-21T03:43:24;15.00;;;12.00;;
57331;SDS011;43164;50.908;18.092;2023-08-21T03:45:53;15.60;;;11.10;;
57331;SDS011;43164;50.908;18.092;2023-08-21T03:48:21;14.80;;;10.70;;
57331;SDS011;43164;50.908;18.092;2023-08-21T03:50:50;14.90;;;11.40;;
57331;SDS011;43164;50.908;18.092;2023-08-21T03:53:19;16.80;;;11.60;;
57331;SDS011;43164;50.908;18.092;2023-08-21T03:55:49;17.00;;;11.40;;
57331;SDS011;43164;50.908;18.092;2023-08-21T03:58:19;15.00;;;11.60;;
57331;SDS011;43164;50.908;18.092;2023-08-21T04:00:48;15.80;;;12.40;;
57331;SDS011;43164;50.908;18.092;2023-08-21T04:03:17;15.30;;;12.10;;
57331;SDS011;43164;50.908;18.092;2023-08-21T04:05:45;15.60;;;12.00;;
57331;SDS011;43164;50.908;18.092;2023-08-21T04:08:16;14.10;;;11.00;;
57331;SDS011;43164;50.908;18.092;2023-08-21T04:10:44;14.30;;;11.90;;
57331;SDS011;43164;50.908;18.092;2023-08-21T04:13:13;17.70;;;12.90;;
57331;SDS011;43164;50.908;18.092;2023-08-21T04:15:53;18.40;;;14.20;;
57331;SDS011;43164;50.908;18.092;2023-08-21T04:18:25;19.70;;;15.20;;
57331;SDS011;43164;50.908;18.092;2023-08-21T04:20:54;19.70;;;15.50;;
57331;SDS011;43164;50.908;18.092;2023-08-21T04:23:22;18.60;;;14.30;;
57331;SDS011;43164;50.908;18.092;2023-08-21T04:25:51;19.60;;;15.90;;
57331;SDS011;43164;50.908;18.092;2023-08-21T04:28:21;18.40;;;15.40;;
57331;SDS011;43164;50.908;18.092;2023-08-21T04:30:49;19.40;;;15.60;;
57331;SDS011;43164;50.908;18.092;2023-08-21T04:33:18;21.60;;;16.00;;
57331;SDS011;43164;50.908;18.092;2023-08-21T04:35:47;21.10;;;14.80;;
57331;SDS011;43164;50.908;18.092;2023-08-21T04:38:16;20.20;;;14.90;;
57331;SDS011;43164;50.908;18.092;2023-08-21T04:40:45;20.90;;;15.80;;
57331;SDS011;43164;50.908;18.092;2023-08-21T04:43:15;18.70;;;14.00;;
57331;SDS011;43164;50.908;18.092;2023-08-21T04:45:52;21.80;;;16.20;;
57331;SDS011;43164;50.908;18.092;2023-08-21T04:48:24;21.00;;;15.10;;
57331;SDS011;43164;50.908;18.092;2023-08-21T04:50:55;21.70;;;15.70;;
57331;SDS011;43164;50.908;18.092;2023-08-21T04:53:31;22.60;;;17.20;;
57331;SDS011;43164;50.908;18.092;2023-08-21T04:56:02;21.20;;;17.00;;
57331;SDS011;43164;50.908;18.092;2023-08-21T04:58:37;20.40;;;16.80;;
57331;SDS011;43164;50.908;18.092;2023-08-21T05:01:11;23.10;;;15.30;;
57331;SDS011;43164;50.908;18.092;2023-08-21T05:03:41;20.50;;;15.60;;
57331;SDS011;43164;50.908;18.092;2023-08-21T05:06:11;20.30;;;16.50;;
57331;SDS011;43164;50.908;18.092;2023-08-21T05:08:43;20.50;;;15.90;;
57331;SDS011;43164;50.908;18.092;2023-08-21T05:11:28;20.30;;;15.20;;
57331;SDS011;43164;50.908;18.092;2023-08-21T05:14:07;22.40;;;16.80;;
57331;SDS011;43164;50.908;18.092;2023-08-21T05:16:44;22.50;;;17.30;;
57331;SDS011;43164;50.908;18.092;2023-08-21T05:19:19;19.70;;;15.70;;
57331;SDS011;43164;50.908;18.092;2023-08-21T05:21:49;21.00;;;16.50;;
57331;SDS011;43164;50.908;18.092;2023-08-21T05:24:19;20.60;;;16.60;;
57331;SDS011;43164;50.908;18.092;2023-08-21T05:26:50;20.70;;;16.90;;
57331;SDS011;43164;50.908;18.092;2023-08-21T05:29:22;21.00;;;15.80;;
57331;SDS011;43164;50.908;18.092;2023-08-21T05:31:52;20.50;;;16.60;;
57331;SDS011;43164;50.908;18.092;2023-08-21T05:42:18;21.50;;;16.40;;
57331;SDS011;43164;50.908;18.092;2023-08-21T05:44:52;22.40;;;17.30;;
57331;SDS011;43164;50.908;18.092;2023-08-21T05:47:25;21.20;;;16.90;;
57331;SDS011;43164;50.908;18.092;2023-08-21T05:49:57;22.60;;;17.40;;
57331;SDS011;43164;50.908;18.092;2023-08-21T05:52:27;20.10;;;15.90;;
57331;SDS011;43164;50.908;18.092;2023-08-21T05:58:52;19.40;;;16.30;;
57331;SDS011;43164;50.908;18.092;2023-08-21T06:01:25;17.20;;;12.80;;
57331;SDS011;43164;50.908;18.092;2023-08-21T06:03:57;19.70;;;15.60;;
57331;SDS011;43164;50.908;18.092;2023-08-21T06:06:28;19.30;;;15.30;;
57331;SDS011;43164;50.908;18.092;2023-08-21T06:11:39;17.10;;;14.10;;
57331;SDS011;43164;50.908;18.092;2023-08-21T06:14:15;21.80;;;16.20;;
57331;SDS011;43164;50.908;18.092;2023-08-21T06:17:04;20.00;;;14.50;;
57331;SDS011;43164;50.908;18.092;2023-08-21T06:22:31;19.20;;;14.60;;
57331;SDS011;43164;50.908;18.092;2023-08-21T06:25:08;17.50;;;14.00;;
57331;SDS011;43164;50.908;18.092;2023-08-21T06:27:47;16.90;;;12.60;;
57331;SDS011;43164;50.908;18.092;2023-08-21T06:33:41;17.00;;;11.40;;
57331;SDS011;43164;50.908;18.092;2023-08-21T06:36:14;13.80;;;9.80;;
57331;SDS011;43164;50.908;18.092;2023-08-21T06:38:48;15.30;;;11.10;;
57331;SDS011;43164;50.908;18.092;2023-08-21T06:51:32;11.90;;;7.10;;
57331;SDS011;43164;50.908;18.092;2023-08-21T06:54:03;11.60;;;8.20;;
57331;SDS011;43164;50.908;18.092;2023-08-21T06:57:09;11.80;;;7.90;;
57331;SDS011;43164;50.908;18.092;2023-08-21T06:59:41;12.40;;;8.70;;
57331;SDS011;43164;50.908;18.092;2023-08-21T07:02:14;11.70;;;8.00;;
57331;SDS011;43164;50.908;18.092;2023-08-21T07:09:17;10.00;;;7.30;;
57331;SDS011;43164;50.908;18.092;2023-08-21T07:11:59;10.50;;;7.30;;
57331;SDS011;43164;50.908;18.092;2023-08-21T07:21:57;8.20;;;5.60;;
57331;SDS011;43164;50.908;18.092;2023-08-21T07:24:39;9.10;;;5.60;;
57331;SDS011;43164;50.908;18.092;2023-08-21T07:27:14;8.90;;;5.70;;
57331;SDS011;43164;50.908;18.092;2023-08-21T07:29:48;7.50;;;4.50;;
57331;SDS011;43164;50.908;18.092;2023-08-21T07:32:19;9.70;;;5.20;;
57331;SDS011;43164;50.908;18.092;2023-08-21T07:45:53;8.20;;;4.80;;
57331;SDS011;43164;50.908;18.092;2023-08-21T07:52:18;7.30;;;4.70;;
57331;SDS011;43164;50.908;18.092;2023-08-21T07:57:44;9.00;;;4.60;;
57331;SDS011;43164;50.908;18.092;2023-08-21T08:00:29;6.60;;;4.40;;
57331;SDS011;43164;50.908;18.092;2023-08-21T08:03:04;7.30;;;4.40;;
57331;SDS011;43164;50.908;18.092;2023-08-21T08:05:40;7.70;;;4.30;;
57331;SDS011;43164;50.908;18.092;2023-08-21T08:08:19;7.70;;;4.60;;
57331;SDS011;43164;50.908;18.092;2023-08-21T08:18:28;8.50;;;4.70;;
57331;SDS011;43164;50.908;18.092;2023-08-21T08:21:45;7.80;;;4.90;;
57331;SDS011;43164;50.908;18.092;2023-08-21T08:24:22;8.00;;;4.30;;
57331;SDS011;43164;50.908;18.092;2023-08-21T08:30:33;6.60;;;4.10;;
57331;SDS011;43164;50.908;18.092;2023-08-21T08:37:32;7.10;;;3.90;;
57331;SDS011;43164;50.908;18.092;2023-08-21T08:44:03;7.20;;;4.10;;
57331;SDS011;43164;50.908;18.092;2023-08-21T08:46:49;6.00;;;3.10;;
57331;SDS011;43164;50.908;18.092;2023-08-21T08:53:24;6.20;;;3.70;;
57331;SDS011;43164;50.908;18.092;2023-08-21T08:59:59;6.20;;;3.30;;
57331;SDS011;43164;50.908;18.092;2023-08-21T09:02:34;4.00;;;2.70;;
57331;SDS011;43164;50.908;18.092;2023-08-21T09:12:32;5.50;;;3.10;;
57331;SDS011;43164;50.908;18.092;2023-08-21T09:15:23;6.00;;;2.40;;
57331;SDS011;43164;50.908;18.092;2023-08-21T09:25:54;5.00;;;2.80;;
57331;SDS011;43164;50.908;18.092;2023-08-21T09:28:33;5.30;;;3.00;;
57331;SDS011;43164;50.908;18.092;2023-08-21T09:35:47;5.20;;;2.70;;
57331;SDS011;43164;50.908;18.092;2023-08-21T09:38:55;4.90;;;2.80;;
57331;SDS011;43164;50.908;18.092;2023-08-21T09:55:37;5.10;;;2.70;;
57331;SDS011;43164;50.908;18.092;2023-08-21T09:58:42;6.30;;;3.40;;
57331;SDS011;43164;50.908;18.092;2023-08-21T10:09:01;5.60;;;3.20;;
57331;SDS011;43164;50.908;18.092;2023-08-21T10:11:36;5.90;;;3.20;;
57331;SDS011;43164;50.908;18.092;2023-08-21T10:43:38;6.00;;;3.60;;
57331;SDS011;43164;50.908;18.092;2023-08-21T10:53:25;7.30;;;3.80;;
57331;SDS011;43164;50.908;18.092;2023-08-21T10:56:07;6.70;;;3.90;;
57331;SDS011;43164;50.908;18.092;2023-08-21T11:20:28;6.70;;;3.60;;
57331;SDS011;43164;50.908;18.092;2023-08-21T11:44:42;5.50;;;3.40;;
57331;SDS011;43164;50.908;18.092;2023-08-21T12:27:10;3.70;;;2.10;;
57331;SDS011;43164;50.908;18.092;2023-08-21T12:36:50;5.70;;;3.00;;
57331;SDS011;43164;50.908;18.092;2023-08-21T12:39:36;5.00;;;2.60;;
57331;SDS011;43164;50.908;18.092;2023-08-21T13:05:48;6.20;;;2.70;;
57331;SDS011;43164;50.908;18.092;2023-08-21T13:12:24;9.00;;;3.00;;
57331;SDS011;43164;50.908;18.092;2023-08-21T13:18:49;7.00;;;3.30;;
57331;SDS011;43164;50.908;18.092;2023-08-21T13:51:42;6.00;;;3.10;;
57331;SDS011;43164;50.908;18.092;2023-08-21T13:57:36;7.80;;;3.30;;
57331;SDS011;43164;50.908;18.092;2023-08-21T14:00:15;5.30;;;3.00;;
57331;SDS011;43164;50.908;18.092;2023-08-21T14:02:54;6.90;;;2.70;;
57331;SDS011;43164;50.908;18.092;2023-08-21T14:06:00;6.20;;;3.00;;
57331;SDS011;43164;50.908;18.092;2023-08-21T14:08:53;5.50;;;3.00;;
57331;SDS011;43164;50.908;18.092;2023-08-21T14:17:33;8.40;;;3.40;;
57331;SDS011;43164;50.908;18.092;2023-08-21T14:23:49;6.00;;;3.00;;
57331;SDS011;43164;50.908;18.092;2023-08-21T14:26:30;7.10;;;3.30;;
57331;SDS011;43164;50.908;18.092;2023-08-21T14:29:15;5.60;;;2.90;;
57331;SDS011;43164;50.908;18.092;2023-08-21T14:42:39;5.10;;;2.80;;
57331;SDS011;43164;50.908;18.092;2023-08-21T14:45:16;8.10;;;3.10;;
57331;SDS011;43164;50.908;18.092;2023-08-21T14:47:47;5.20;;;2.60;;
57331;SDS011;43164;50.908;18.092;2023-08-21T14:50:21;6.30;;;3.30;;
57331;SDS011;43164;50.908;18.092;2023-08-21T15:06:20;6.30;;;2.90;;
57331;SDS011;43164;50.908;18.092;2023-08-21T15:11:53;4.70;;;2.70;;
57331;SDS011;43164;50.908;18.092;2023-08-21T15:14:25;5.30;;;2.40;;
57331;SDS011;43164;50.908;18.092;2023-08-21T15:17:06;5.00;;;2.30;;
57331;SDS011;43164;50.908;18.092;2023-08-21T15:19:38;7.60;;;3.00;;
57331;SDS011;43164;50.908;18.092;2023-08-21T15:22:24;4.80;;;2.70;;
57331;SDS011;43164;50.908;18.092;2023-08-21T15:28:38;5.20;;;2.00;;
57331;SDS011;43164;50.908;18.092;2023-08-21T15:42:05;5.20;;;2.20;;
57331;SDS011;43164;50.908;18.092;2023-08-21T15:44:47;4.70;;;2.50;;
57331;SDS011;43164;50.908;18.092;2023-08-21T15:47:28;5.20;;;2.00;;
57331;SDS011;43164;50.908;18.092;2023-08-21T15:50:10;5.70;;;2.60;;
57331;SDS011;43164;50.908;18.092;2023-08-21T15:52:58;6.30;;;2.20;;
57331;SDS011;43164;50.908;18.092;2023-08-21T16:03:55;4.30;;;1.80;;
57331;SDS011;43164;50.908;18.092;2023-08-21T16:06:30;3.60;;;1.60;;
57331;SDS011;43164;50.908;18.092;2023-08-21T16:09:29;4.10;;;1.50;;
57331;SDS011;43164;50.908;18.092;2023-08-21T16:23:11;3.50;;;1.40;;
57331;SDS011;43164;50.908;18.092;2023-08-21T16:35:37;6.40;;;1.90;;
57331;SDS011;43164;50.908;18.092;2023-08-21T16:38:25;5.20;;;1.70;;
57331;SDS011;43164;50.908;18.092;2023-08-21T16:41:07;6.20;;;3.10;;
57331;SDS011;43164;50.908;18.092;2023-08-21T16:43:48;29.90;;;22.80;;
57331;SDS011;43164;50.908;18.092;2023-08-21T16:46:19;11.50;;;7.50;;
57331;SDS011;43164;50.908;18.092;2023-08-21T16:48:54;6.00;;;3.00;;
57331;SDS011;43164;50.908;18.092;2023-08-21T16:51:33;4.30;;;2.30;;
57331;SDS011;43164;50.908;18.092;2023-08-21T16:54:09;6.20;;;2.10;;
57331;SDS011;43164;50.908;18.092;2023-08-21T16:56:50;4.30;;;2.00;;
57331;SDS011;43164;50.908;18.092;2023-08-21T16:59:23;4.10;;;1.90;;
57331;SDS011;43164;50.908;18.092;2023-08-21T17:02:06;9.10;;;4.70;;
57331;SDS011;43164;50.908;18.092;2023-08-21T17:04:39;9.00;;;4.20;;
57331;SDS011;43164;50.908;18.092;2023-08-21T17:07:16;8.70;;;3.10;;
57331;SDS011;43164;50.908;18.092;2023-08-21T17:09:53;4.80;;;2.40;;
57331;SDS011;43164;50.908;18.092;2023-08-21T17:12:25;4.70;;;2.00;;
57331;SDS011;43164;50.908;18.092;2023-08-21T17:14:59;4.50;;;2.10;;
57331;SDS011;43164;50.908;18.092;2023-08-21T17:17:41;5.10;;;2.50;;
57331;SDS011;43164;50.908;18.092;2023-08-21T17:20:11;4.60;;;2.20;;
57331;SDS011;43164;50.908;18.092;2023-08-21T17:22:41;5.20;;;2.30;;
57331;SDS011;43164;50.908;18.092;2023-08-21T17:25:11;6.60;;;2.50;;
57331;SDS011;43164;50.908;18.092;2023-08-21T17:27:39;5.60;;;2.10;;
57331;SDS011;43164;50.908;18.092;2023-08-21T17:30:08;6.20;;;2.40;;
57331;SDS011;43164;50.908;18.092;2023-08-21T17:32:37;4.70;;;2.40;;
57331;SDS011;43164;50.908;18.092;2023-08-21T17:35:11;6.20;;;2.60;;
57331;SDS011;43164;50.908;18.092;2023-08-21T17:37:41;4.90;;;2.80;;
57331;SDS011;43164;50.908;18.092;2023-08-21T17:40:11;7.40;;;2.70;;
57331;SDS011;43164;50.908;18.092;2023-08-21T17:42:40;5.80;;;2.70;;
57331;SDS011;43164;50.908;18.092;2023-08-21T17:45:09;5.00;;;2.90;;
57331;SDS011;43164;50.908;18.092;2023-08-21T17:47:38;6.80;;;2.60;;
57331;SDS011;43164;50.908;18.092;2023-08-21T17:50:06;5.80;;;3.00;;
57331;SDS011;43164;50.908;18.092;2023-08-21T17:52:35;6.50;;;2.80;;
57331;SDS011;43164;50.908;18.092;2023-08-21T17:55:07;5.20;;;2.70;;
57331;SDS011;43164;50.908;18.092;2023-08-21T17:57:35;6.90;;;2.90;;
57331;SDS011;43164;50.908;18.092;2023-08-21T18:00:03;6.30;;;3.00;;
57331;SDS011;43164;50.908;18.092;2023-08-21T18:02:34;5.20;;;2.70;;
57331;SDS011;43164;50.908;18.092;2023-08-21T18:05:02;6.50;;;3.00;;
57331;SDS011;43164;50.908;18.092;2023-08-21T18:07:35;6.10;;;3.30;;
57331;SDS011;43164;50.908;18.092;2023-08-21T18:10:05;7.10;;;2.90;;
57331;SDS011;43164;50.908;18.092;2023-08-21T18:12:35;6.50;;;2.80;;
57331;SDS011;43164;50.908;18.092;2023-08-21T18:15:04;8.70;;;3.30;;
57331;SDS011;43164;50.908;18.092;2023-08-21T18:17:33;5.00;;;2.90;;
57331;SDS011;43164;50.908;18.092;2023-08-21T18:20:01;7.90;;;3.40;;
57331;SDS011;43164;50.908;18.092;2023-08-21T18:22:29;6.00;;;3.70;;
57331;SDS011;43164;50.908;18.092;2023-08-21T18:24:58;7.10;;;3.80;;
57331;SDS011;43164;50.908;18.092;2023-08-21T18:27:29;6.20;;;3.70;;
57331;SDS011;43164;50.908;18.092;2023-08-21T18:29:56;6.40;;;3.80;;
57331;SDS011;43164;50.908;18.092;2023-08-21T18:32:25;7.10;;;4.30;;
57331;SDS011;43164;50.908;18.092;2023-08-21T18:34:53;8.00;;;4.30;;
57331;SDS011;43164;50.908;18.092;2023-08-21T18:37:21;8.70;;;4.40;;
57331;SDS011;43164;50.908;18.092;2023-08-21T18:39:50;8.40;;;4.60;;
57331;SDS011;43164;50.908;18.092;2023-08-21T18:42:19;8.40;;;3.90;;
57331;SDS011;43164;50.908;18.092;2023-08-21T18:44:47;6.10;;;3.90;;
57331;SDS011;43164;50.908;18.092;2023-08-21T18:47:15;6.40;;;3.50;;
57331;SDS011;43164;50.908;18.092;2023-08-21T18:49:44;8.00;;;3.60;;
57331;SDS011;43164;50.908;18.092;2023-08-21T18:52:12;8.10;;;4.00;;
57331;SDS011;43164;50.908;18.092;2023-08-21T18:54:40;7.50;;;4.00;;
57331;SDS011;43164;50.908;18.092;2023-08-21T18:57:09;7.70;;;4.10;;
57331;SDS011;43164;50.908;18.092;2023-08-21T18:59:44;7.30;;;4.00;;
57331;SDS011;43164;50.908;18.092;2023-08-21T19:02:13;7.70;;;3.80;;
57331;SDS011;43164;50.908;18.092;2023-08-21T19:04:41;7.20;;;3.90;;
57331;SDS011;43164;50.908;18.092;2023-08-21T19:07:10;6.90;;;4.10;;
57331;SDS011;43164;50.908;18.092;2023-08-21T19:09:38;7.50;;;4.70;;
57331;SDS011;43164;50.908;18.092;2023-08-21T19:12:05;10.00;;;4.60;;
57331;SDS011;43164;50.908;18.092;2023-08-21T19:14:33;9.70;;;4.40;;
57331;SDS011;43164;50.908;18.092;2023-08-21T19:17:01;7.50;;;4.20;;
57331;SDS011;43164;50.908;18.092;2023-08-21T19:19:30;7.30;;;4.10;;
57331;SDS011;43164;50.908;18.092;2023-08-21T19:21:58;7.40;;;4.30;;
57331;SDS011;43164;50.908;18.092;2023-08-21T19:24:26;8.00;;;4.10;;
57331;SDS011;43164;50.908;18.092;2023-08-21T19:26:55;7.70;;;4.30;;
57331;SDS011;43164;50.908;18.092;2023-08-21T19:29:22;9.90;;;4.10;;
57331;SDS011;43164;50.908;18.092;2023-08-21T19:31:51;8.70;;;5.10;;
57331;SDS011;43164;50.908;18.092;2023-08-21T19:34:21;7.80;;;4.50;;
57331;SDS011;43164;50.908;18.092;2023-08-21T19:36:49;8.10;;;4.50;;
57331;SDS011;43164;50.908;18.092;2023-08-21T19:39:17;7.30;;;4.00;;
57331;SDS011;43164;50.908;18.092;2023-08-21T19:41:45;6.90;;;4.30;;
57331;SDS011;43164;50.908;18.092;2023-08-21T19:44:13;7.50;;;4.50;;
57331;SDS011;43164;50.908;18.092;2023-08-21T19:46:42;6.90;;;4.70;;
57331;SDS011;43164;50.908;18.092;2023-08-21T19:49:09;9.00;;;4.80;;
57331;SDS011;43164;50.908;18.092;2023-08-21T19:51:37;9.10;;;5.10;;
57331;SDS011;43164;50.908;18.092;2023-08-21T19:54:06;7.60;;;4.50;;
57331;SDS011;43164;50.908;18.092;2023-08-21T19:56:34;8.40;;;4.30;;
57331;SDS011;43164;50.908;18.092;2023-08-21T19:59:03;7.20;;;4.40;;
57331;SDS011;43164;50.908;18.092;2023-08-21T20:01:33;7.10;;;4.40;;
57331;SDS011;43164;50.908;18.092;2023-08-21T20:04:07;7.20;;;4.60;;
57331;SDS011;43164;50.908;18.092;2023-08-21T20:06:35;8.10;;;4.20;;
57331;SDS011;43164;50.908;18.092;2023-08-21T20:09:04;7.40;;;3.70;;
57331;SDS011;43164;50.908;18.092;2023-08-21T20:11:32;6.50;;;3.80;;
57331;SDS011;43164;50.908;18.092;2023-08-21T20:14:01;9.40;;;4.10;;
57331;SDS011;43164;50.908;18.092;2023-08-21T20:16:30;7.40;;;4.00;;
57331;SDS011;43164;50.908;18.092;2023-08-21T20:18:59;7.80;;;4.20;;
57331;SDS011;43164;50.908;18.092;2023-08-21T20:21:26;7.10;;;3.80;;
57331;SDS011;43164;50.908;18.092;2023-08-21T20:23:56;6.50;;;4.10;;
57331;SDS011;43164;50.908;18.092;2023-08-21T20:26:25;9.50;;;4.50;;
57331;SDS011;43164;50.908;18.092;2023-08-21T20:28:55;9.70;;;4.20;;
57331;SDS011;43164;50.908;18.092;2023-08-21T20:31:24;7.50;;;4.00;;
57331;SDS011;43164;50.908;18.092;2023-08-21T20:33:54;7.30;;;4.00;;
57331;SDS011;43164;50.908;18.092;2023-08-21T20:36:27;9.40;;;4.20;;
57331;SDS011;43164;50.908;18.092;2023-08-21T20:38:56;7.30;;;4.10;;
57331;SDS011;43164;50.908;18.092;2023-08-21T20:41:24;6.50;;;3.90;;
57331;SDS011;43164;50.908;18.092;2023-08-21T20:43:53;6.00;;;3.50;;
57331;SDS011;43164;50.908;18.092;2023-08-21T20:46:21;5.30;;;3.30;;
57331;SDS011;43164;50.908;18.092;2023-08-21T20:48:50;7.10;;;3.40;;
57331;SDS011;43164;50.908;18.092;2023-08-21T20:51:18;7.30;;;3.50;;
57331;SDS011;43164;50.908;18.092;2023-08-21T20:53:49;5.60;;;3.20;;
57331;SDS011;43164;50.908;18.092;2023-08-21T20:56:18;9.20;;;4.20;;
57331;SDS011;43164;50.908;18.092;2023-08-21T20:58:46;8.40;;;4.90;;
57331;SDS011;43164;50.908;18.092;2023-08-21T21:01:14;11.60;;;5.00;;
57331;SDS011;43164;50.908;18.092;2023-08-21T21:03:43;8.10;;;4.90;;
57331;SDS011;43164;50.908;18.092;2023-08-21T21:06:12;9.60;;;5.00;;
57331;SDS011;43164;50.908;18.092;2023-08-21T21:08:40;8.60;;;5.40;;
57331;SDS011;43164;50.908;18.092;2023-08-21T21:11:07;8.40;;;5.60;;
57331;SDS011;43164;50.908;18.092;2023-08-21T21:13:35;7.00;;;4.30;;
57331;SDS011;43164;50.908;18.092;2023-08-21T21:16:03;10.20;;;4.10;;
57331;SDS011;43164;50.908;18.092;2023-08-21T21:18:32;6.40;;;3.90;;
57331;SDS011;43164;50.908;18.092;2023-08-21T21:20:59;8.30;;;3.80;;
57331;SDS011;43164;50.908;18.092;2023-08-21T21:23:28;6.90;;;3.70;;
57331;SDS011;43164;50.908;18.092;2023-08-21T21:25:59;6.50;;;4.30;;
57331;SDS011;43164;50.908;18.092;2023-08-21T21:28:32;8.00;;;3.80;;
57331;SDS011;43164;50.908;18.092;2023-08-21T21:31:00;7.60;;;3.90;;
57331;SDS011;43164;50.908;18.092;2023-08-21T21:33:28;7.40;;;3.80;;
57331;SDS011;43164;50.908;18.092;2023-08-21T21:35:57;5.70;;;3.70;;
57331;SDS011;43164;50.908;18.092;2023-08-21T21:38:24;6.50;;;3.60;;
57331;SDS011;43164;50.908;18.092;2023-08-21T21:40:54;6.20;;;3.60;;